Time;durP1;ratioP1;P1;durP2;ratioP2;P2;SDS_P1;SDS_P2;PMS_P1;PMS_P2;Temp;Humidity;BMP_temperature;BMP_pressure;BME280_temperature;BME280_humidity;BME280_pressure;Samples;Min_cycle;Max_cycle;Signal;HPM_P1;HPM_P2
2021/03/09 00:00:40;;;;;;;119.10;47.83;;;5.10;95.30;;;;;;5034294;28;20120;-84
2021/03/09 00:03:06;;;;;;;117.53;49.10;;;5.10;95.40;;;;;;5034840;28;20029;-85
2021/03/09 00:05:31;;;;;;;122.03;47.93;;;5.10;95.50;;;;;;5036059;28;20025;-83
2021/03/09 00:07:57;;;;;;;125.40;47.70;;;5.10;95.40;;;;;;5034618;28;20505;-84
2021/03/09 00:10:23;;;;;;;119.40;47.47;;;5.10;95.60;;;;;;5035111;28;20393;-84
2021/03/09 00:12:48;;;;;;;122.80;46.23;;;5.10;95.70;;;;;;5035545;28;20482;-84
2021/03/09 00:15:14;;;;;;;130.30;50.73;;;5.00;95.80;;;;;;5034166;28;20033;-85
2021/03/09 00:17:40;;;;;;;126.77;49.43;;;5.00;95.70;;;;;;5035211;28;20038;-84
2021/03/09 00:20:06;;;;;;;123.27;48.57;;;5.00;95.90;;;;;;5035172;28;20389;-84
2021/03/09 00:22:32;;;;;;;122.83;47.07;;;5.00;95.90;;;;;;5035340;28;20026;-84
2021/03/09 00:24:58;;;;;;;120.10;48.37;;;5.00;96.00;;;;;;5035619;28;20060;-85
2021/03/09 00:27:24;;;;;;;117.53;47.83;;;5.10;96.10;;;;;;5035012;28;20030;-84
2021/03/09 00:29:50;;;;;;;126.23;48.17;;;5.10;96.10;;;;;;5034930;28;20108;-84
2021/03/09 00:32:15;;;;;;;117.07;47.60;;;5.10;95.70;;;;;;5035081;28;20023;-84
2021/03/09 00:34:41;;;;;;;122.20;46.70;;;5.00;95.90;;;;;;5035429;28;20029;-84
2021/03/09 00:37:06;;;;;;;121.90;47.77;;;5.00;96.40;;;;;;5035719;28;20021;-84
2021/03/09 00:39:32;;;;;;;116.20;46.40;;;5.00;96.60;;;;;;5036459;28;20102;-85
2021/03/09 00:41:59;;;;;;;96.50;40.30;;;5.10;96.10;;;;;;5036236;28;20055;-84
2021/03/09 00:44:24;;;;;;;91.20;38.90;;;5.20;95.80;;;;;;5036480;28;20022;-85
2021/03/09 00:46:51;;;;;;;84.30;37.17;;;5.20;95.50;;;;;;5036158;28;20033;-84
2021/03/09 00:49:17;;;;;;;79.23;34.80;;;5.30;95.40;;;;;;5034568;28;20045;-85
2021/03/09 00:51:43;;;;;;;79.43;35.10;;;5.30;94.80;;;;;;5034924;28;20033;-84
2021/03/09 00:54:09;;;;;;;70.53;34.23;;;5.30;94.90;;;;;;5034482;28;20021;-85
2021/03/09 00:56:34;;;;;;;66.40;31.60;;;5.30;94.70;;;;;;5035474;28;20445;-84
2021/03/09 00:59:00;;;;;;;65.77;31.53;;;5.30;94.70;;;;;;5034829;28;20033;-85
2021/03/09 01:01:26;;;;;;;65.83;30.70;;;5.30;94.70;;;;;;5035369;28;20030;-85
2021/03/09 01:03:51;;;;;;;66.50;31.37;;;5.30;94.70;;;;;;5036581;28;20091;-84
2021/03/09 01:06:17;;;;;;;58.80;30.80;;;5.30;94.70;;;;;;5035452;28;20032;-84
2021/03/09 01:08:42;;;;;;;61.17;30.23;;;5.30;94.70;;;;;;5034939;28;20030;-85
2021/03/09 01:11:08;;;;;;;59.50;29.57;;;5.40;94.50;;;;;;5034405;28;20021;-84
2021/03/09 01:13:34;;;;;;;61.20;29.73;;;5.40;94.60;;;;;;5035995;28;20442;-85
2021/03/09 01:15:59;;;;;;;60.00;29.07;;;5.40;94.70;;;;;;5034903;28;20393;-84
2021/03/09 01:18:25;;;;;;;57.50;28.37;;;5.30;94.60;;;;;;5034987;28;20046;-84
2021/03/09 01:20:51;;;;;;;57.70;27.53;;;5.40;94.80;;;;;;5035664;28;20070;-84
2021/03/09 01:23:17;;;;;;;58.80;29.67;;;5.40;94.80;;;;;;5034531;28;20033;-84
2021/03/09 01:25:43;;;;;;;58.33;28.13;;;5.30;94.40;;;;;;5034951;28;20095;-85
2021/03/09 01:28:12;;;;;;;55.97;27.67;;;5.30;94.60;;;;;;5035998;28;20027;-84
2021/03/09 01:30:38;;;;;;;54.58;27.58;;;5.30;94.80;;;;;;5034164;28;20394;-84
2021/03/09 01:33:04;;;;;;;55.93;27.03;;;5.20;94.60;;;;;;5036238;28;20025;-84
2021/03/09 01:35:30;;;;;;;51.60;26.60;;;5.30;94.70;;;;;;5036123;28;20022;-84
2021/03/09 01:37:56;;;;;;;56.90;26.27;;;5.30;94.80;;;;;;5036529;28;20363;-84
2021/03/09 01:40:22;;;;;;;53.37;27.30;;;5.30;94.50;;;;;;5034990;28;20032;-85
2021/03/09 01:42:48;;;;;;;53.33;27.10;;;5.30;94.70;;;;;;5034761;28;20485;-84
2021/03/09 01:45:14;;;;;;;57.90;26.83;;;5.30;94.50;;;;;;5034569;28;20021;-85
2021/03/09 01:47:42;;;;;;;52.53;25.93;;;5.20;94.80;;;;;;5034292;28;20036;-84
2021/03/09 01:50:09;;;;;;;54.60;26.73;;;5.20;94.70;;;;;;5035491;28;20051;-84
2021/03/09 01:52:35;;;;;;;54.73;27.10;;;5.20;95.10;;;;;;5035700;28;20474;-84
2021/03/09 01:55:02;;;;;;;59.67;28.07;;;5.20;94.90;;;;;;5035626;28;20025;-85
2021/03/09 01:57:28;;;;;;;66.53;29.47;;;5.20;94.80;;;;;;5034542;28;20032;-84
2021/03/09 01:59:55;;;;;;;57.10;27.63;;;5.20;95.00;;;;;;5035121;28;20385;-85
2021/03/09 02:02:21;;;;;;;58.60;28.47;;;5.20;95.10;;;;;;5033881;28;20040;-84
2021/03/09 02:04:46;;;;;;;58.10;28.03;;;5.20;95.10;;;;;;5034704;28;20029;-84
2021/03/09 02:07:12;;;;;;;51.03;25.37;;;5.20;94.90;;;;;;5034228;28;20478;-84
2021/03/09 02:09:38;;;;;;;57.60;26.90;;;5.20;95.00;;;;;;5035553;28;20029;-84
2021/03/09 02:12:17;;;;;;;62.33;27.97;;;5.20;94.90;;;;;;5035825;28;20017;-84
2021/03/09 02:14:43;;;;;;;;;;;5.20;94.80;;;;;;5036410;28;20060;-84
2021/03/09 02:17:35;;;;;;;56.50;26.07;;;5.10;94.70;;;;;;5033979;28;19909;-84
2021/03/09 02:20:01;;;;;;;59.83;26.57;;;5.10;95.00;;;;;;5033930;28;20029;-85
2021/03/09 02:23:04;;;;;;;55.40;26.87;;;5.20;95.20;;;;;;5035632;28;20213;-84
2021/03/09 02:26:11;;;;;;;57.30;26.53;;;5.20;95.10;;;;;;5036158;28;20029;-84
2021/03/09 02:28:50;;;;;;;54.40;26.13;;;5.20;94.90;;;;;;5035037;28;20047;-85
2021/03/09 02:31:16;;;;;;;;;;;5.20;95.00;;;;;;5034837;28;20022;-84
2021/03/09 02:33:53;;;;;;;53.70;25.37;;;5.20;94.90;;;;;;5035173;28;19928;-85
2021/03/09 02:36:23;;;;;;;52.47;25.30;;;5.20;94.90;;;;;;5034322;28;20017;-84
2021/03/09 02:39:04;;;;;;;59.25;28.05;;;5.20;94.90;;;;;;5034629;28;20021;-84
2021/03/09 02:41:30;;;;;;;58.00;26.70;;;5.20;95.00;;;;;;5034225;28;20029;-84
2021/03/09 02:43:58;;;;;;;56.13;26.33;;;5.20;94.90;;;;;;5032553;28;20053;-84
2021/03/09 02:46:26;;;;;;;54.43;25.80;;;5.20;94.90;;;;;;5033129;28;20564;-84
2021/03/09 02:48:54;;;;;;;60.83;27.27;;;5.20;95.20;;;;;;5034418;28;20083;-85
2021/03/09 02:51:26;;;;;;;55.67;26.87;;;5.20;94.60;;;;;;5033049;28;20029;-84
2021/03/09 02:53:55;;;;;;;58.33;27.17;;;5.20;94.80;;;;;;5034512;28;20029;-85
2021/03/09 02:56:22;;;;;;;60.80;28.43;;;5.20;94.90;;;;;;5032980;28;20493;-84
2021/03/09 02:58:56;;;;;;;62.60;29.87;;;5.10;94.80;;;;;;5034076;28;20029;-84
2021/03/09 03:01:25;;;;;;;66.83;30.23;;;5.10;94.60;;;;;;5034606;28;20032;-84
2021/03/09 03:03:53;;;;;;;62.47;29.02;;;5.00;95.10;;;;;;5032881;28;20465;-84
2021/03/09 03:06:19;;;;;;;65.30;29.77;;;5.00;94.80;;;;;;5032945;28;20041;-84
2021/03/09 03:08:45;;;;;;;67.67;31.30;;;5.00;94.90;;;;;;5032678;28;20029;-84
2021/03/09 03:11:13;;;;;;;71.57;33.17;;;5.00;94.90;;;;;;5032170;28;20102;-84
2021/03/09 03:13:45;;;;;;;72.50;32.57;;;4.90;94.90;;;;;;5031363;28;20021;-85
2021/03/09 03:16:12;;;;;;;76.90;34.97;;;4.90;95.00;;;;;;5031446;28;20099;-84
2021/03/09 03:18:42;;;;;;;74.07;33.60;;;4.80;94.90;;;;;;5032910;28;20037;-85
2021/03/09 03:21:10;;;;;;;80.23;34.40;;;4.90;95.30;;;;;;5031693;28;20048;-84
2021/03/09 03:23:37;;;;;;;78.03;35.20;;;4.80;95.40;;;;;;5033915;28;20081;-85
2021/03/09 03:26:05;;;;;;;72.33;34.23;;;4.90;95.30;;;;;;5033580;28;20060;-84
2021/03/09 03:28:33;;;;;;;78.70;34.37;;;4.90;95.60;;;;;;5033592;28;20522;-84
2021/03/09 03:31:00;;;;;;;79.50;36.67;;;4.90;95.40;;;;;;5033760;28;20040;-84
2021/03/09 03:33:28;;;;;;;75.73;36.07;;;4.90;95.30;;;;;;5032484;28;20025;-85
2021/03/09 03:35:53;;;;;;;80.20;36.53;;;4.90;95.40;;;;;;5032690;28;20429;-84
2021/03/09 03:38:20;;;;;;;76.47;36.73;;;4.90;95.50;;;;;;5033907;28;20093;-84
2021/03/09 03:40:45;;;;;;;83.67;37.30;;;4.90;95.70;;;;;;5033815;28;20033;-84
2021/03/09 03:43:11;;;;;;;83.07;36.90;;;4.90;95.50;;;;;;5033636;28;20025;-84
2021/03/09 03:45:37;;;;;;;77.90;35.37;;;5.00;95.50;;;;;;5033916;28;20021;-84
2021/03/09 03:48:03;;;;;;;80.23;36.33;;;4.90;95.70;;;;;;5033190;28;20539;-84
2021/03/09 03:50:30;;;;;;;80.33;36.97;;;4.90;95.70;;;;;;5033012;28;20028;-85
2021/03/09 03:53:02;;;;;;;83.57;37.37;;;4.80;95.80;;;;;;5032745;28;20036;-84
2021/03/09 03:55:59;;;;;;;78.30;37.07;;;4.80;95.50;;;;;;5033711;28;20041;-84
2021/03/09 03:58:42;;;;;;;82.07;35.90;;;4.70;95.80;;;;;;5034005;28;20021;-84
2021/03/09 04:01:11;;;;;;;83.80;37.57;;;4.70;95.70;;;;;;5033080;28;20029;-84
2021/03/09 04:03:37;;;;;;;84.50;37.80;;;4.70;95.90;;;;;;5033939;28;20467;-85
2021/03/09 04:06:05;;;;;;;84.00;38.30;;;4.70;95.80;;;;;;5032277;28;20478;-84
2021/03/09 04:08:33;;;;;;;88.00;38.30;;;4.60;95.70;;;;;;5033999;28;20021;-85
2021/03/09 04:11:01;;;;;;;81.87;38.53;;;4.50;95.80;;;;;;5031242;28;20025;-84
2021/03/09 04:13:27;;;;;;;83.60;37.57;;;4.50;96.10;;;;;;5032306;28;20033;-84
2021/03/09 04:15:55;;;;;;;81.83;38.80;;;4.50;96.10;;;;;;5033379;28;20022;-84
2021/03/09 04:18:23;;;;;;;83.97;38.80;;;4.60;96.10;;;;;;5032128;28;20034;-84
2021/03/09 04:20:49;;;;;;;85.80;39.03;;;4.70;96.20;;;;;;5032954;28;20018;-85
2021/03/09 04:23:17;;;;;;;80.40;39.83;;;4.60;96.40;;;;;;5032358;28;20475;-84
2021/03/09 04:25:43;;;;;;;81.13;37.73;;;4.70;95.90;;;;;;5031885;28;20028;-85
2021/03/09 04:28:10;;;;;;;80.53;39.07;;;4.70;96.10;;;;;;5033444;28;20029;-84
2021/03/09 04:30:36;;;;;;;80.40;38.13;;;4.70;96.10;;;;;;5036318;28;20032;-85
2021/03/09 04:33:03;;;;;;;82.23;38.00;;;4.70;96.10;;;;;;5037199;28;20021;-85
2021/03/09 04:35:28;;;;;;;78.27;36.83;;;4.70;96.40;;;;;;5036016;28;20022;-84
2021/03/09 04:37:55;;;;;;;84.93;37.67;;;4.60;96.10;;;;;;5037877;28;20108;-84
2021/03/09 04:40:21;;;;;;;80.53;37.10;;;4.60;95.90;;;;;;5035023;28;20116;-84
2021/03/09 04:42:47;;;;;;;78.20;36.13;;;4.60;95.80;;;;;;5035110;28;20513;-84
2021/03/09 04:45:14;;;;;;;80.30;37.93;;;4.60;96.10;;;;;;5036826;28;20105;-85
2021/03/09 04:47:40;;;;;;;78.20;38.20;;;4.60;95.50;;;;;;5036418;28;20036;-85
2021/03/09 04:50:09;;;;;;;79.20;36.47;;;4.50;95.80;;;;;;5036562;28;20112;-84
2021/03/09 04:52:35;;;;;;;73.43;35.42;;;4.50;96.00;;;;;;5036400;28;20050;-84
2021/03/09 04:55:04;;;;;;;80.17;37.90;;;4.60;96.00;;;;;;5036502;28;20033;-85
2021/03/09 04:57:43;;;;;;;78.85;37.47;;;4.60;96.10;;;;;;5036177;28;20033;-84
2021/03/09 05:00:14;;;;;;;76.82;37.63;;;4.70;96.10;;;;;;5034607;28;20044;-84
2021/03/09 05:02:44;;;;;;;81.77;36.93;;;4.60;96.20;;;;;;5036251;28;20030;-85
2021/03/09 05:05:11;;;;;;;89.17;38.43;;;4.70;96.10;;;;;;5036121;28;20022;-85
2021/03/09 05:07:37;;;;;;;83.00;39.80;;;4.70;96.10;;;;;;5034462;28;20022;-84
2021/03/09 05:10:04;;;;;;;81.63;37.87;;;4.70;96.50;;;;;;5034998;28;20021;-84
2021/03/09 05:12:30;;;;;;;86.40;38.73;;;4.70;96.40;;;;;;5034778;28;20478;-84
2021/03/09 05:14:56;;;;;;;82.50;38.67;;;4.60;96.40;;;;;;5035516;28;20024;-84
2021/03/09 05:17:21;;;;;;;88.57;41.43;;;4.60;96.10;;;;;;5036445;28;20124;-84
2021/03/09 05:19:47;;;;;;;81.47;36.77;;;4.70;96.30;;;;;;5035631;28;20104;-84
2021/03/09 05:22:13;;;;;;;82.30;37.57;;;4.60;96.30;;;;;;5036356;28;20029;-84
2021/03/09 05:24:39;;;;;;;82.90;37.77;;;4.60;96.30;;;;;;5036615;28;20057;-84
2021/03/09 05:27:05;;;;;;;78.77;36.67;;;4.60;96.50;;;;;;5034867;28;20022;-85
2021/03/09 05:29:31;;;;;;;84.03;38.10;;;4.70;96.50;;;;;;5035339;28;20027;-84
2021/03/09 05:31:57;;;;;;;78.97;36.40;;;4.70;96.20;;;;;;5037331;28;20021;-84
2021/03/09 05:34:22;;;;;;;78.83;36.30;;;4.60;96.50;;;;;;5039628;28;20022;-84
2021/03/09 05:36:48;;;;;;;78.30;35.10;;;4.60;96.50;;;;;;5037090;28;20506;-84
2021/03/09 05:39:14;;;;;;;76.77;36.43;;;4.60;96.50;;;;;;5037380;28;20033;-84
2021/03/09 05:41:40;;;;;;;84.33;36.70;;;4.60;96.30;;;;;;5037792;28;20033;-84
2021/03/09 05:44:06;;;;;;;79.33;37.03;;;4.60;96.70;;;;;;5037166;28;20104;-84
2021/03/09 05:46:32;;;;;;;82.13;37.57;;;4.60;96.70;;;;;;5038618;28;20032;-85
2021/03/09 05:48:58;;;;;;;79.33;36.80;;;4.60;96.70;;;;;;5036179;28;20085;-85
2021/03/09 05:51:25;;;;;;;82.00;37.90;;;4.70;96.80;;;;;;5037490;28;20025;-84
2021/03/09 05:53:51;;;;;;;83.87;38.40;;;4.60;97.10;;;;;;5036321;28;20032;-84
2021/03/09 05:56:17;;;;;;;81.93;37.50;;;4.60;96.90;;;;;;5036330;28;20029;-85
2021/03/09 05:58:43;;;;;;;83.10;39.33;;;4.70;96.80;;;;;;5036052;28;20033;-84
2021/03/09 06:01:10;;;;;;;84.87;37.93;;;4.70;96.80;;;;;;5036178;28;20037;-84
2021/03/09 06:03:36;;;;;;;81.67;36.27;;;4.60;96.70;;;;;;5035101;28;20033;-84
2021/03/09 06:06:02;;;;;;;77.40;37.93;;;4.60;96.90;;;;;;5035949;28;20112;-84
2021/03/09 06:08:30;;;;;;;77.73;37.07;;;4.70;96.90;;;;;;5036575;28;20040;-85
2021/03/09 06:11:13;;;;;;;80.90;36.90;;;4.60;96.80;;;;;;5034497;28;20028;-84
2021/03/09 06:13:39;;;;;;;87.03;37.63;;;4.60;96.80;;;;;;5035278;28;20049;-84
2021/03/09 06:16:04;;;;;;;79.67;36.53;;;4.60;96.90;;;;;;5036030;28;20027;-85
2021/03/09 06:18:30;;;;;;;77.47;36.80;;;4.70;96.90;;;;;;5057473;22;20105;-84
2021/03/09 06:21:13;;;;;;;73.50;36.60;;;4.70;96.90;;;;;;5032912;28;20497;-84
2021/03/09 06:23:40;;;;;;;72.20;35.23;;;4.60;96.70;;;;;;5034048;28;20032;-84
2021/03/09 06:26:35;;;;;;;77.67;36.47;;;4.60;96.80;;;;;;5033816;28;20033;-84
2021/03/09 06:29:12;;;;;;;72.27;35.03;;;4.60;96.60;;;;;;5029755;28;20109;-85
2021/03/09 06:32:03;;;;;;;74.53;34.70;;;4.60;96.90;;;;;;5035151;28;20021;-84
2021/03/09 06:34:31;;;;;;;73.27;34.77;;;4.60;96.80;;;;;;5032024;28;20025;-86
2021/03/09 06:37:10;;;;;;;70.40;33.57;;;4.60;96.80;;;;;;5031724;28;20478;-86
2021/03/09 06:39:51;;;;;;;71.55;34.00;;;4.60;96.80;;;;;;5033180;28;20017;-86
2021/03/09 06:42:22;;;;;;;70.57;32.87;;;4.50;96.80;;;;;;5046408;28;20047;-86
2021/03/09 06:44:53;;;;;;;65.90;33.30;;;4.50;96.90;;;;;;5035316;28;20025;-86
2021/03/09 06:47:34;;;;;;;70.40;33.50;;;4.50;96.90;;;;;;5032006;28;20029;-86
2021/03/09 06:50:01;;;;;;;69.57;33.67;;;4.60;96.80;;;;;;5034445;28;20048;-86
2021/03/09 06:52:27;;;;;;;70.07;33.63;;;4.50;96.90;;;;;;5039705;28;20037;-86
2021/03/09 06:54:54;;;;;;;69.67;33.20;;;4.60;96.90;;;;;;5032783;28;20021;-86
2021/03/09 06:57:21;;;;;;;70.60;34.60;;;4.50;97.20;;;;;;5038085;28;20124;-85
2021/03/09 06:59:52;;;;;;;72.30;34.43;;;4.50;97.20;;;;;;5034490;28;20048;-84
2021/03/09 07:02:26;;;;;;;69.57;34.27;;;4.50;97.20;;;;;;5034605;28;20036;-85
2021/03/09 07:05:13;;;;;;;71.23;35.03;;;4.50;97.10;;;;;;5034330;28;20695;-85
2021/03/09 07:07:42;;;;;;;66.47;34.17;;;4.50;97.30;;;;;;5033155;28;20036;-85
2021/03/09 07:10:13;;;;;;;68.53;35.07;;;4.50;97.30;;;;;;5036621;28;20036;-85
2021/03/09 07:12:41;;;;;;;71.80;36.13;;;4.50;97.30;;;;;;5035401;28;20398;-85
2021/03/09 07:15:09;;;;;;;69.63;34.33;;;4.50;96.90;;;;;;5034898;28;20025;-84
2021/03/09 07:17:38;;;;;;;73.53;35.97;;;4.50;97.30;;;;;;5040903;28;20033;-86
2021/03/09 07:20:07;;;;;;;69.40;34.55;;;4.50;97.20;;;;;;5042967;28;20025;-86
2021/03/09 07:22:34;;;;;;;72.05;36.20;;;4.50;97.10;;;;;;5039917;28;20025;-86
2021/03/09 07:25:13;;;;;;;69.67;34.17;;;4.60;97.20;;;;;;5051522;28;20025;-86
2021/03/09 07:27:53;;;;;;;73.20;36.00;;;4.60;96.90;;;;;;5031799;28;20085;-86
2021/03/09 07:30:21;;;;;;;68.10;34.00;;;4.60;97.20;;;;;;5030558;28;20489;-86
2021/03/09 07:32:53;;;;;;;72.70;34.73;;;4.60;97.00;;;;;;5030648;28;20025;-86
2021/03/09 07:35:20;;;;;;;74.03;36.17;;;4.60;97.10;;;;;;5032395;28;20372;-85
2021/03/09 07:37:47;;;;;;;68.87;34.90;;;4.60;97.20;;;;;;5033316;28;20042;-84
2021/03/09 07:40:18;;;;;;;73.40;35.73;;;4.50;97.20;;;;;;5032808;28;20486;-84
2021/03/09 07:42:45;;;;;;;64.23;34.07;;;4.50;97.30;;;;;;5034572;28;20520;-84
2021/03/09 07:45:13;;;;;;;69.00;35.07;;;4.60;97.20;;;;;;5035043;28;20506;-84
2021/03/09 07:47:49;;;;;;;72.25;34.58;;;4.50;97.40;;;;;;5033571;28;20029;-84
2021/03/09 07:50:16;;;;;;;69.53;36.27;;;4.60;97.50;;;;;;5032711;28;20029;-84
2021/03/09 07:53:16;;;;;;;68.80;35.20;;;4.60;97.50;;;;;;5033118;28;20025;-84
2021/03/09 07:55:44;;;;;;;66.73;33.83;;;4.60;97.10;;;;;;5033870;28;20054;-84
2021/03/09 07:58:17;;;;;;;68.07;33.60;;;4.70;97.10;;;;;;5032738;28;20033;-84
2021/03/09 08:00:59;;;;;;;68.27;34.63;;;4.60;97.30;;;;;;5032381;28;20026;-84
2021/03/09 08:03:41;;;;;;;64.57;32.37;;;4.70;97.00;;;;;;5032934;28;20029;-84
2021/03/09 08:06:15;;;;;;;69.03;33.33;;;4.70;97.70;;;;;;5036860;28;20359;-85
2021/03/09 08:08:51;;;;;;;64.37;32.47;;;4.60;97.30;;;;;;5037895;28;20032;-85
2021/03/09 08:11:20;;;;;;;69.53;35.13;;;4.60;97.50;;;;;;5036452;28;20025;-85
2021/03/09 08:14:04;;;;;;;64.35;32.72;;;4.60;97.60;;;;;;5038476;28;20028;-85
2021/03/09 08:16:42;;;;;;;65.40;32.73;;;4.70;97.30;;;;;;5038048;28;20497;-84
2021/03/09 08:19:37;;;;;;;60.23;32.13;;;4.70;97.40;;;;;;5037228;28;20055;-84
2021/03/09 08:22:04;;;;;;;63.53;32.80;;;4.70;96.90;;;;;;5038925;28;20041;-84
2021/03/09 08:24:42;;;;;;;66.13;32.83;;;4.70;97.40;;;;;;5038234;28;20025;-84
2021/03/09 08:27:35;;;;;;;61.63;32.23;;;4.70;97.40;;;;;;5039161;28;20085;-85
2021/03/09 08:30:30;;;;;;;61.27;31.47;;;4.60;97.50;;;;;;5037573;28;20034;-84
2021/03/09 08:33:22;;;;;;;58.80;29.70;;;4.70;97.40;;;;;;5037887;28;20021;-84
2021/03/09 08:35:48;;;;;;;60.67;31.03;;;4.60;97.30;;;;;;5038116;28;20017;-84
2021/03/09 08:38:18;;;;;;;57.47;30.27;;;4.60;97.20;;;;;;5038239;28;20375;-84
2021/03/09 08:41:05;;;;;;;65.17;31.40;;;4.70;97.40;;;;;;5035820;28;20117;-85
2021/03/09 08:43:31;;;;;;;61.20;31.17;;;4.60;97.30;;;;;;5036798;28;20025;-85
2021/03/09 08:45:59;;;;;;;61.80;31.67;;;4.70;97.80;;;;;;5036310;28;20022;-84
2021/03/09 08:49:01;;;;;;;61.33;30.40;;;4.70;97.60;;;;;;5036723;28;20025;-84
2021/03/09 08:51:40;;;;;;;57.23;29.83;;;4.70;97.70;;;;;;5014892;28;20068;-84
2021/03/09 08:54:21;;;;;;;55.30;29.93;;;4.60;97.80;;;;;;5036659;28;20049;-84
2021/03/09 08:56:47;;;;;;;52.67;27.67;;;4.70;97.70;;;;;;5036059;28;20041;-84
2021/03/09 08:59:13;;;;;;;50.53;28.43;;;4.70;97.70;;;;;;5035625;28;20053;-85
2021/03/09 09:01:38;;;;;;;53.77;27.57;;;4.70;98.00;;;;;;5036213;28;20072;-84
2021/03/09 09:04:19;;;;;;;48.93;26.00;;;4.70;97.50;;;;;;5036607;28;20079;-85
2021/03/09 09:06:47;;;;;;;45.97;25.03;;;4.70;97.30;;;;;;5036287;28;20029;-84
2021/03/09 09:09:28;;;;;;;49.50;25.47;;;4.70;97.60;;;;;;5036663;28;20033;-84
2021/03/09 09:11:54;;;;;;;47.60;25.70;;;4.70;97.80;;;;;;5036271;28;20471;-84
2021/03/09 09:14:19;;;;;;;46.20;26.03;;;4.60;97.70;;;;;;5036376;28;20022;-84
2021/03/09 09:16:46;;;;;;;43.30;25.33;;;4.70;97.70;;;;;;5034605;28;20434;-84
2021/03/09 09:19:12;;;;;;;44.63;25.30;;;4.70;97.40;;;;;;5038010;28;20037;-85
2021/03/09 09:21:48;;;;;;;49.53;25.33;;;4.70;97.60;;;;;;5035876;28;20026;-84
2021/03/09 09:24:24;;;;;;;42.97;24.13;;;4.60;97.60;;;;;;5037946;28;20053;-84
2021/03/09 09:27:03;;;;;;;43.87;24.63;;;4.60;97.60;;;;;;5036281;28;20033;-84
2021/03/09 09:29:29;;;;;;;47.17;25.20;;;4.60;97.70;;;;;;5037458;28;20021;-84
2021/03/09 09:31:59;;;;;;;47.87;25.77;;;4.60;98.10;;;;;;5035899;28;20112;-84
2021/03/09 09:34:36;;;;;;;45.80;25.07;;;4.70;98.10;;;;;;5036656;28;20032;-84
2021/03/09 09:37:13;;;;;;;49.37;25.40;;;4.70;97.90;;;;;;5035533;28;20474;-84
2021/03/09 09:39:40;;;;;;;50.10;25.83;;;4.70;98.10;;;;;;5034744;28;20544;-84
2021/03/09 09:42:12;;;;;;;47.17;26.60;;;4.60;98.10;;;;;;5036176;28;20017;-84
2021/03/09 09:44:38;;;;;;;47.23;26.03;;;4.60;98.10;;;;;;5035749;28;20021;-85
2021/03/09 09:47:04;;;;;;;53.67;27.73;;;4.70;98.10;;;;;;5036803;28;20053;-84
2021/03/09 09:49:30;;;;;;;52.80;26.87;;;4.70;98.50;;;;;;5035149;28;20021;-84
2021/03/09 09:51:56;;;;;;;51.17;28.20;;;4.80;98.10;;;;;;5037090;28;20052;-84
2021/03/09 09:54:21;;;;;;;52.90;27.90;;;4.70;98.20;;;;;;5035798;28;20430;-84
2021/03/09 09:56:47;;;;;;;50.30;28.37;;;4.70;98.10;;;;;;5036051;28;20049;-84
2021/03/09 09:59:27;;;;;;;57.57;29.77;;;4.70;98.30;;;;;;5035575;28;20037;-84
2021/03/09 10:01:53;;;;;;;56.50;29.40;;;4.70;98.10;;;;;;5035093;28;20121;-84
2021/03/09 10:04:19;;;;;;;53.17;28.80;;;4.70;98.30;;;;;;5035568;28;20065;-84
2021/03/09 10:06:49;;;;;;;59.07;29.57;;;4.70;98.10;;;;;;5037503;28;20067;-85
2021/03/09 10:09:21;;;;;;;54.37;28.13;;;4.70;98.30;;;;;;5034187;28;20072;-85
2021/03/09 10:11:51;;;;;;;57.33;29.07;;;4.70;98.40;;;;;;5033106;28;20428;-85
2021/03/09 10:14:18;;;;;;;55.53;30.03;;;4.80;98.30;;;;;;5032911;28;20028;-85
2021/03/09 10:16:44;;;;;;;54.03;29.37;;;4.80;98.50;;;;;;5034194;28;20044;-84
2021/03/09 10:19:21;;;;;;;56.60;29.33;;;4.90;98.60;;;;;;5031785;28;20429;-85
2021/03/09 10:21:54;;;;;;;59.77;31.57;;;4.80;98.40;;;;;;5032791;28;20482;-86
2021/03/09 10:24:31;;;;;;;61.30;31.97;;;4.80;98.40;;;;;;5032913;28;20068;-85
2021/03/09 10:26:58;;;;;;;58.40;30.73;;;4.70;98.40;;;;;;5032279;28;20076;-85
2021/03/09 10:29:25;;;;;;;60.47;29.50;;;4.80;98.50;;;;;;5032224;28;20025;-84
2021/03/09 10:31:55;;;;;;;56.00;29.67;;;4.80;98.40;;;;;;5032807;28;20026;-85
2021/03/09 10:34:38;;;;;;;55.67;28.27;;;4.80;98.50;;;;;;5032772;28;20105;-85
2021/03/09 10:37:09;;;;;;;58.83;31.90;;;4.80;98.60;;;;;;5034215;28;20052;-84
2021/03/09 10:39:37;;;;;;;60.23;29.90;;;4.80;98.80;;;;;;5034005;28;20090;-84
2021/03/09 10:42:40;;;;;;;55.63;29.87;;;4.80;98.60;;;;;;5035396;28;20030;-85
2021/03/09 10:45:15;;;;;;;53.70;29.50;;;4.90;98.60;;;;;;5034612;28;20100;-84
2021/03/09 10:47:41;;;;;;;58.07;30.07;;;4.90;98.70;;;;;;5035576;28;20033;-84
2021/03/09 10:50:09;;;;;;;58.07;30.07;;;4.90;98.50;;;;;;5034543;28;20120;-85
2021/03/09 10:52:34;;;;;;;62.20;31.20;;;4.90;98.60;;;;;;5035356;28;20028;-84
2021/03/09 10:55:00;;;;;;;61.90;31.70;;;4.90;98.80;;;;;;5037054;28;20025;-84
2021/03/09 10:57:25;;;;;;;57.43;31.20;;;4.90;98.70;;;;;;5035354;28;20036;-85
2021/03/09 10:59:54;;;;;;;61.30;31.30;;;4.90;98.90;;;;;;5035736;28;20030;-84
2021/03/09 11:02:26;;;;;;;62.20;32.28;;;4.90;99.00;;;;;;5035422;28;20033;-85
2021/03/09 11:04:51;;;;;;;62.13;31.87;;;5.00;98.80;;;;;;5031975;28;20072;-84
2021/03/09 11:07:17;;;;;;;64.07;32.50;;;4.90;98.90;;;;;;5031768;28;20061;-86
2021/03/09 11:09:43;;;;;;;58.83;32.00;;;4.90;99.30;;;;;;5032169;28;20025;-85
2021/03/09 11:12:08;;;;;;;90.17;45.73;;;5.00;99.20;;;;;;5035208;28;20018;-85
2021/03/09 11:14:34;;;;;;;64.17;34.13;;;5.00;99.00;;;;;;5034348;28;20091;-85
2021/03/09 11:17:00;;;;;;;63.53;32.30;;;5.00;99.20;;;;;;5033375;28;20025;-84
2021/03/09 11:19:25;;;;;;;68.30;34.30;;;5.00;99.80;;;;;;5031758;28;20025;-84
2021/03/09 11:21:51;;;;;;;66.43;33.73;;;5.10;99.10;;;;;;5031853;28;20559;-84
2021/03/09 11:24:16;;;;;;;74.27;37.70;;;5.10;99.30;;;;;;5033748;28;20029;-84
2021/03/09 11:26:42;;;;;;;73.60;36.07;;;5.00;99.30;;;;;;5037357;28;20033;-85
2021/03/09 11:29:08;;;;;;;67.50;34.57;;;5.10;99.30;;;;;;5037964;28;20167;-84
2021/03/09 11:31:33;;;;;;;68.37;35.10;;;5.10;99.20;;;;;;5037185;28;20034;-85
2021/03/09 11:33:59;;;;;;;71.67;36.90;;;5.10;99.30;;;;;;5038686;28;20025;-85
2021/03/09 11:36:25;;;;;;;73.17;37.20;;;5.10;99.40;;;;;;5039494;28;20466;-84
2021/03/09 11:38:51;;;;;;;81.83;38.30;;;5.10;99.60;;;;;;5038890;28;20033;-85
2021/03/09 11:41:19;;;;;;;75.10;36.40;;;5.00;99.60;;;;;;5040973;28;20053;-85
2021/03/09 11:43:45;;;;;;;73.00;37.27;;;5.10;99.80;;;;;;5041901;28;20486;-84
2021/03/09 11:46:11;;;;;;;71.33;35.43;;;5.10;99.80;;;;;;5042871;28;20037;-84
2021/03/09 11:48:38;;;;;;;73.60;36.63;;;5.20;99.90;;;;;;5043440;28;20179;-85
2021/03/09 11:51:06;;;;;;;72.70;36.90;;;5.20;99.80;;;;;;5039878;28;20029;-86
2021/03/09 11:53:31;;;;;;;71.30;36.47;;;5.20;99.90;;;;;;5041824;28;20021;-86
2021/03/09 11:55:57;;;;;;;75.97;37.03;;;5.30;99.60;;;;;;5039169;28;20120;-86
2021/03/09 11:58:23;;;;;;;75.33;37.47;;;5.30;99.70;;;;;;5040529;28;20060;-86
2021/03/09 12:00:48;;;;;;;76.17;38.60;;;5.30;99.70;;;;;;5040496;28;20091;-87
2021/03/09 12:03:14;;;;;;;71.93;35.83;;;5.30;99.80;;;;;;5040269;28;20029;-86
2021/03/09 12:05:40;;;;;;;75.00;36.67;;;5.30;99.90;;;;;;5039179;28;20053;-86
2021/03/09 12:08:06;;;;;;;77.23;36.53;;;5.30;99.90;;;;;;5035101;28;20059;-87
2021/03/09 12:10:31;;;;;;;77.43;38.20;;;5.40;99.90;;;;;;5040276;28;20025;-86
2021/03/09 12:12:57;;;;;;;73.27;36.53;;;5.40;99.90;;;;;;5037848;28;20030;-86
2021/03/09 12:15:23;;;;;;;77.03;36.63;;;5.40;99.90;;;;;;5037075;28;20083;-87
2021/03/09 12:17:49;;;;;;;76.07;37.13;;;5.50;99.90;;;;;;5038505;28;20508;-86
2021/03/09 12:20:18;;;;;;;72.93;35.57;;;5.50;99.90;;;;;;5037770;28;20010;-86
2021/03/09 12:22:44;;;;;;;69.82;35.38;;;5.50;99.90;;;;;;5017846;28;20074;-87
2021/03/09 12:25:10;;;;;;;75.20;37.20;;;5.60;99.90;;;;;;5018354;28;20116;-86
2021/03/09 12:27:36;;;;;;;70.37;35.97;;;5.60;99.90;;;;;;5017335;28;20026;-86
2021/03/09 12:30:06;;;;;;;73.93;37.80;;;5.60;99.90;;;;;;5017425;28;20080;-87
2021/03/09 12:32:33;;;;;;;73.57;38.23;;;5.70;99.90;;;;;;5019158;28;20036;-86
2021/03/09 12:35:07;;;;;;;72.60;36.77;;;5.70;99.90;;;;;;5017231;28;20044;-86
2021/03/09 12:37:37;;;;;;;69.63;34.83;;;5.70;99.90;;;;;;5016873;28;20517;-86
2021/03/09 12:40:03;;;;;;;74.20;37.15;;;5.70;99.90;;;;;;5017956;28;20037;-86
2021/03/09 12:42:28;;;;;;;77.97;36.47;;;5.70;99.90;;;;;;5017144;28;20122;-87
2021/03/09 12:44:54;;;;;;;65.90;34.10;;;5.80;99.90;;;;;;5016935;28;20057;-86
2021/03/09 12:47:21;;;;;;;78.00;37.53;;;5.80;99.90;;;;;;5015462;28;20037;-87
2021/03/09 12:49:47;;;;;;;72.60;34.97;;;5.90;99.90;;;;;;5015573;28;20121;-85